createdAt,value
2022-10-09T09:49:30.165Z,54.76
2022-10-09T09:52:36.713Z,54.82
2022-10-09T09:55:38.443Z,54.86
2022-10-09T10:01:30.682Z,55.20
2022-10-09T10:04:34.038Z,55.02
2022-10-09T10:07:38.145Z,54.97
2022-10-09T10:10:45.454Z,54.93
2022-10-09T10:13:51.953Z,54.85
2022-10-09T10:16:56.974Z,54.83
2022-10-09T10:27:42.928Z,45.32
2022-10-09T10:30:46.309Z,43.73
2022-10-09T10:33:52.420Z,43.87
2022-10-09T10:37:15.003Z,40.40
2022-10-09T10:40:53.437Z,39.36
2022-10-09T10:44:26.135Z,38.17
2022-10-09T10:47:34.465Z,35.58
2022-10-09T10:50:46.269Z,36.51
2022-10-09T10:54:03.556Z,37.62
2022-10-09T10:57:17.423Z,37.08
2022-10-09T11:00:19.583Z,35.88
2022-10-09T11:03:44.105Z,35.81
2022-10-09T11:07:02.968Z,34.76
2022-10-09T11:10:25.442Z,35.50
2022-10-09T11:13:35.210Z,33.89
2022-10-09T11:16:55.392Z,34.16
2022-10-09T11:20:34.699Z,34.94
2022-10-09T11:24:01.282Z,35.03
2022-10-09T11:27:14.054Z,36.03
2022-10-09T11:30:20.765Z,36.56
2022-10-09T11:33:28.685Z,36.20
2022-10-09T11:36:40.875Z,36.92
2022-10-09T11:39:43.423Z,36.48
2022-10-09T11:42:59.335Z,36.48
2022-10-09T11:46:07.486Z,34.48
2022-10-09T11:49:28.480Z,34.42
2022-10-09T11:52:55.171Z,34.55
2022-10-09T11:56:09.141Z,34.49
2022-10-09T11:59:22.411Z,32.83
2022-10-09T12:02:27.954Z,33.32
2022-10-09T12:05:34.578Z,33.57
2022-10-09T12:08:38.509Z,35.77
2022-10-09T12:11:41.113Z,37.75
2022-10-09T12:14:45.524Z,36.65
2022-10-09T12:17:49.963Z,34.92
2022-10-09T12:20:54.350Z,34.88
2022-10-09T12:23:57.185Z,34.08
2022-10-09T12:27:03.355Z,34.33
2022-10-09T12:30:18.211Z,33.46
2022-10-09T12:33:43.707Z,32.50
2022-10-09T12:36:45.847Z,33.21
2022-10-09T12:39:49.694Z,33.84
2022-10-09T12:42:54.111Z,33.18
2022-10-09T12:45:56.487Z,32.41
2022-10-09T12:49:00.419Z,32.66
2022-10-09T12:52:02.899Z,31.14
2022-10-09T12:55:16.691Z,31.47
2022-10-09T12:58:20.332Z,31.42
2022-10-09T13:01:22.752Z,32.00
2022-10-09T13:04:31.155Z,31.78
2022-10-09T13:07:33.240Z,30.69
2022-10-09T13:10:36.127Z,31.39
2022-10-09T13:13:39.276Z,32.00
2022-10-09T13:16:44.115Z,31.23
2022-10-09T13:19:52.369Z,32.98
2022-10-09T13:22:56.961Z,33.97
2022-10-09T13:26:03.503Z,35.28
2022-10-09T13:29:07.338Z,34.53
2022-10-09T13:32:17.819Z,34.80
2022-10-09T13:35:19.852Z,35.00
2022-10-09T13:38:23.660Z,35.14
2022-10-09T13:41:25.748Z,34.61
2022-10-09T13:44:27.786Z,34.92
2022-10-09T13:47:29.680Z,34.47
2022-10-09T13:50:31.857Z,35.62
2022-10-09T13:53:34.374Z,36.34
2022-10-09T13:56:36.507Z,35.24
2022-10-09T13:59:39.568Z,35.87
2022-10-09T14:02:41.631Z,36.41
2022-10-09T14:05:44.577Z,37.23
2022-10-09T14:08:46.512Z,37.70
2022-10-09T14:11:49.144Z,37.38
2022-10-09T14:14:53.215Z,37.75
2022-10-09T14:17:55.415Z,38.21
2022-10-09T14:20:57.365Z,38.73
2022-10-09T14:24:01.532Z,39.56
2022-10-09T14:27:03.780Z,39.59
2022-10-09T14:30:06.237Z,39.63
2022-10-09T14:33:08.546Z,39.26
2022-10-09T14:36:18.721Z,40.05
2022-10-09T14:39:20.789Z,39.68
2022-10-09T14:42:23.143Z,40.07
2022-10-09T14:45:25.187Z,40.52
2022-10-09T14:48:27.165Z,41.05
2022-10-09T14:51:32.536Z,41.51
2022-10-09T14:54:36.781Z,42.30
2022-10-09T14:57:38.799Z,42.50
2022-10-09T15:00:46.967Z,42.93
2022-10-09T15:03:49.699Z,43.55
2022-10-09T15:06:51.763Z,43.98
2022-10-09T15:09:55.026Z,44.17
2022-10-09T15:12:56.949Z,44.37
2022-10-09T15:16:00.559Z,44.63
2022-10-09T15:19:04.668Z,45.43
2022-10-09T15:22:06.783Z,45.57
2022-10-09T15:25:09.148Z,47.10
2022-10-09T15:28:11.358Z,47.98
2022-10-09T15:31:27.057Z,47.59
2022-10-09T15:34:29.490Z,48.98
2022-10-09T15:37:31.487Z,48.70
2022-10-09T15:40:55.817Z,48.24
2022-10-09T15:44:00.857Z,49.52
2022-10-09T15:47:02.835Z,51.07
2022-10-09T15:50:05.527Z,51.40
2022-10-09T15:53:14.304Z,51.00
2022-10-09T15:56:22.514Z,51.89
2022-10-09T15:59:25.851Z,51.80
2022-10-09T16:02:27.772Z,52.58
2022-10-09T16:05:30.139Z,53.55
2022-10-09T16:08:32.410Z,53.48
2022-10-09T16:11:34.795Z,54.17
2022-10-09T16:14:38.376Z,54.28
2022-10-09T16:17:40.293Z,55.16
2022-10-09T16:20:42.809Z,55.47
2022-10-09T16:23:45.848Z,55.42
2022-10-09T16:26:47.832Z,56.59
2022-10-09T16:29:49.788Z,57.28
2022-10-09T16:32:52.541Z,57.60
2022-10-09T16:35:55.020Z,58.68
2022-10-09T16:38:58.245Z,58.76
2022-10-09T16:42:03.870Z,58.74
2022-10-09T16:45:06.383Z,59.30
2022-10-09T16:48:08.549Z,60.45
2022-10-09T16:51:12.813Z,61.37
2022-10-09T16:54:14.758Z,61.98
2022-10-09T16:57:17.917Z,62.94
2022-10-09T17:00:20.161Z,63.27
2022-10-09T17:03:22.334Z,63.62
2022-10-09T17:06:24.449Z,64.08
2022-10-09T17:09:26.583Z,64.32
2022-10-09T17:12:28.664Z,64.86
2022-10-09T17:15:31.298Z,65.42
2022-10-09T17:18:33.946Z,65.75
2022-10-09T17:21:36.616Z,66.12
2022-10-09T17:24:38.781Z,66.53
2022-10-09T17:27:40.788Z,66.77
2022-10-09T17:30:43.382Z,67.43
2022-10-09T17:33:48.357Z,67.05
2022-10-09T17:36:50.453Z,67.73
2022-10-09T17:39:52.986Z,68.51
2022-10-09T17:42:55.006Z,68.07
2022-10-09T17:45:57.017Z,68.28
2022-10-09T17:49:00.055Z,69.10
2022-10-09T17:52:02.193Z,68.94
2022-10-09T17:55:04.566Z,69.13
2022-10-09T17:58:06.931Z,69.42
2022-10-09T18:01:10.573Z,70.09
2022-10-09T18:04:16.003Z,70.35
2022-10-09T18:07:20.079Z,70.86
2022-10-09T18:10:22.927Z,71.25
2022-10-09T18:13:25.619Z,71.68
2022-10-09T18:16:35.766Z,72.60
2022-10-09T18:19:39.087Z,72.75
2022-10-09T18:22:41.677Z,73.48
2022-10-09T18:25:45.379Z,73.76
2022-10-09T18:28:48.598Z,74.35
2022-10-09T18:31:56.113Z,75.16
2022-10-09T18:34:59.405Z,74.71
2022-10-09T18:38:02.009Z,75.03
2022-10-09T18:41:04.740Z,75.25
2022-10-09T18:44:12.915Z,75.38
2022-10-09T18:47:19.059Z,75.42
2022-10-09T18:50:22.791Z,75.43
2022-10-09T18:53:27.160Z,75.63
2022-10-09T18:56:32.792Z,75.64
2022-10-09T18:59:38.425Z,76.25
2022-10-09T19:02:41.089Z,76.55
2022-10-09T19:05:45.181Z,76.61
2022-10-09T19:08:48.084Z,76.57
2022-10-09T19:11:52.636Z,76.89
2022-10-09T19:14:54.857Z,77.35
2022-10-09T19:17:56.919Z,77.75
2022-10-09T19:20:59.360Z,77.88
2022-10-09T19:24:04.572Z,77.61
2022-10-09T19:27:06.748Z,77.95
2022-10-09T19:30:09.633Z,78.11
2022-10-09T19:33:12.327Z,78.39
2022-10-09T19:36:14.769Z,78.65
2022-10-09T19:39:19.093Z,78.83
2022-10-09T19:42:21.402Z,79.14
2022-10-09T19:45:24.157Z,79.54
2022-10-09T19:48:27.328Z,80.18
2022-10-09T19:51:29.396Z,80.78
2022-10-09T19:54:35.606Z,80.98
2022-10-09T19:57:37.720Z,81.09
2022-10-09T20:00:43.741Z,81.25
2022-10-09T20:03:47.263Z,81.76
2022-10-09T20:06:49.701Z,81.79
2022-10-09T20:09:52.029Z,82.10
2022-10-09T20:12:54.744Z,82.21
2022-10-09T20:15:57.159Z,82.47
2022-10-09T20:19:01.141Z,82.90
2022-10-09T20:22:03.541Z,82.75
2022-10-09T20:25:06.292Z,82.99
2022-10-09T20:28:08.372Z,83.26
2022-10-09T20:31:20.742Z,83.32
2022-10-09T20:34:23.667Z,83.62
2022-10-09T20:37:25.920Z,83.58
2022-10-09T20:40:27.952Z,83.86
2022-10-09T20:43:29.880Z,83.96
2022-10-09T20:46:34.098Z,84.03
2022-10-09T20:49:36.316Z,84.50
2022-10-09T20:52:38.662Z,84.46
2022-10-09T20:55:40.624Z,84.41
2022-10-09T20:58:42.962Z,84.60
2022-10-09T21:01:45.257Z,84.79
2022-10-09T21:04:47.393Z,84.73
2022-10-09T21:07:49.576Z,84.61
2022-10-09T21:10:51.583Z,84.61
2022-10-09T21:13:54.066Z,84.75
2022-10-09T21:16:56.108Z,84.72
2022-10-09T21:19:58.679Z,84.81
2022-10-09T21:23:00.668Z,84.86
2022-10-09T21:26:03.135Z,85.18
2022-10-09T21:29:05.977Z,84.86
2022-10-09T21:32:08.006Z,85.09
2022-10-09T21:35:09.932Z,85.29
2022-10-09T21:38:14.398Z,85.56
2022-10-09T21:41:16.419Z,85.69
2022-10-09T21:44:18.361Z,85.83
2022-10-09T21:47:20.369Z,85.89
2022-10-09T21:50:22.351Z,85.96
2022-10-09T21:53:24.381Z,86.09
2022-10-09T21:56:26.471Z,86.18
2022-10-09T21:59:28.751Z,86.14
2022-10-09T22:02:30.750Z,85.95
2022-10-09T22:05:32.696Z,85.57
2022-10-09T22:08:34.706Z,85.21
2022-10-09T22:11:36.760Z,85.22
2022-10-09T22:14:38.792Z,85.33
2022-10-09T22:17:40.700Z,85.44
2022-10-09T22:20:46.466Z,85.37
2022-10-09T22:23:49.973Z,85.56
2022-10-09T22:26:51.962Z,85.48
2022-10-09T22:29:53.981Z,85.75
2022-10-09T22:32:56.224Z,85.97
2022-10-09T22:36:29.156Z,86.05
2022-10-09T22:39:31.489Z,86.10
2022-10-09T22:42:33.640Z,85.86
2022-10-09T22:45:38.843Z,86.01
2022-10-09T22:48:41.600Z,86.00
2022-10-09T22:51:44.288Z,86.27
2022-10-09T22:54:46.257Z,86.30
2022-10-09T22:57:48.233Z,86.40
2022-10-09T23:00:50.794Z,86.46
2022-10-09T23:03:52.694Z,86.71
2022-10-09T23:06:59.673Z,86.58
2022-10-09T23:10:02.491Z,86.64
2022-10-09T23:13:05.037Z,86.56
2022-10-09T23:16:10.137Z,86.43
2022-10-09T23:19:12.856Z,86.26
2022-10-09T23:22:14.805Z,86.05
2022-10-09T23:25:19.172Z,85.86
2022-10-09T23:28:21.971Z,86.09
2022-10-09T23:31:25.317Z,85.79
2022-10-09T23:34:27.415Z,85.87
2022-10-09T23:37:29.313Z,85.84
2022-10-09T23:40:32.073Z,85.74
2022-10-09T23:43:36.516Z,85.86
2022-10-09T23:46:38.583Z,85.80
2022-10-09T23:49:40.629Z,86.13
2022-10-09T23:52:42.583Z,86.33
2022-10-09T23:55:45.206Z,85.93
2022-10-09T23:58:47.429Z,86.09
